createdAt,value
2023-03-29T00:00:44.328Z,-0.88
2023-03-29T00:01:48.274Z,-0.89
2023-03-29T00:02:51.718Z,-0.88
2023-03-29T00:03:54.713Z,-0.98
2023-03-29T00:04:58.301Z,-1.00
2023-03-29T00:06:05.959Z,-1.03
2023-03-29T00:07:09.445Z,-1.06
2023-03-29T00:08:14.903Z,-0.98
2023-03-29T00:09:18.451Z,-0.94
2023-03-29T00:10:24.288Z,-1.02
2023-03-29T00:11:27.612Z,-1.16
2023-03-29T00:12:31.146Z,-1.07
2023-03-29T00:13:33.826Z,-1.02
2023-03-29T00:14:36.603Z,-1.09
2023-03-29T00:15:39.384Z,-1.18
2023-03-29T00:16:42.418Z,-1.18
2023-03-29T00:17:45.233Z,-1.07
2023-03-29T00:18:48.047Z,-1.00
2023-03-29T00:19:50.748Z,-1.04
2023-03-29T00:20:58.474Z,-0.90
2023-03-29T00:22:02.193Z,-0.92
2023-03-29T00:23:04.909Z,-1.05
2023-03-29T00:24:07.808Z,-0.99
2023-03-29T00:25:12.283Z,-1.02
2023-03-29T00:26:15.063Z,-0.98
2023-03-29T00:27:18.071Z,-0.93
2023-03-29T00:28:20.926Z,-0.81
2023-03-29T00:29:23.819Z,-0.91
2023-03-29T00:30:26.444Z,-0.88
2023-03-29T00:31:29.106Z,-0.90
2023-03-29T00:32:33.185Z,-0.79
2023-03-29T00:33:36.932Z,-0.87
2023-03-29T00:34:42.818Z,-0.88
2023-03-29T00:35:46.425Z,-1.14
2023-03-29T00:36:53.241Z,-1.10
2023-03-29T00:37:58.117Z,-1.08
2023-03-29T00:39:00.936Z,-0.98
2023-03-29T00:40:09.889Z,-1.08
2023-03-29T00:41:13.825Z,-1.09
2023-03-29T00:42:17.441Z,-1.01
2023-03-29T00:43:20.209Z,-1.09
2023-03-29T00:45:02.042Z,-1.46
2023-03-29T00:46:05.863Z,-1.30
2023-03-29T00:47:08.807Z,-1.34
2023-03-29T00:48:16.108Z,-1.41
2023-03-29T00:49:18.924Z,-1.42
2023-03-29T00:50:36.508Z,-1.13
2023-03-29T00:51:41.604Z,-1.25
2023-03-29T00:52:51.647Z,-1.21
2023-03-29T00:53:59.070Z,-1.37
2023-03-29T00:55:08.281Z,-1.39
2023-03-29T00:56:14.498Z,-1.43
2023-03-29T00:57:20.504Z,-1.35
2023-03-29T00:58:29.810Z,-1.51
2023-03-29T00:59:35.804Z,-1.57
2023-03-29T01:00:47.634Z,-1.69
2023-03-29T01:01:54.801Z,-1.55
2023-03-29T01:03:00.060Z,-1.58
2023-03-29T01:04:18.275Z,-1.52
2023-03-29T01:05:29.818Z,-1.67
2023-03-29T01:06:36.026Z,-1.58
2023-03-29T01:07:53.811Z,-1.50
2023-03-29T01:09:03.256Z,-1.41
2023-03-29T01:10:12.658Z,-1.52
2023-03-29T01:11:20.221Z,-1.49
2023-03-29T01:12:26.741Z,-1.52
2023-03-29T01:13:39.620Z,-1.54
2023-03-29T01:14:50.056Z,-1.58
2023-03-29T01:15:54.729Z,-1.63
2023-03-29T01:16:57.677Z,-1.64
2023-03-29T01:18:02.096Z,-1.57
2023-03-29T01:19:08.507Z,-1.70
2023-03-29T01:20:23.672Z,-1.66
2023-03-29T01:21:49.607Z,-1.75
2023-03-29T01:23:31.061Z,-1.75
2023-03-29T01:25:07.546Z,-1.78
2023-03-29T01:26:23.143Z,-1.81
2023-03-29T01:27:51.963Z,-1.90
2023-03-29T01:29:10.275Z,-1.89
2023-03-29T01:30:18.999Z,-1.76
2023-03-29T01:31:30.808Z,-1.85
2023-03-29T01:32:50.797Z,-2.03
2023-03-29T01:34:10.144Z,-2.14
2023-03-29T01:35:23.055Z,-2.13
2023-03-29T01:36:50.414Z,-2.04
2023-03-29T01:37:59.096Z,-1.93
2023-03-29T01:39:07.309Z,-1.92
2023-03-29T01:40:11.547Z,-1.92
2023-03-29T01:41:14.722Z,-1.98
2023-03-29T01:42:42.433Z,-2.00
2023-03-29T01:43:54.063Z,-2.01
2023-03-29T01:45:08.205Z,-2.13
2023-03-29T01:46:35.727Z,-2.13
2023-03-29T01:48:04.483Z,-2.12
2023-03-29T01:49:16.937Z,-2.13
2023-03-29T01:50:32.960Z,-2.02
2023-03-29T01:51:52.689Z,-2.11
2023-03-29T01:53:04.571Z,-2.08
2023-03-29T01:54:26.616Z,-1.95
2023-03-29T01:55:34.423Z,-2.09
2023-03-29T01:56:42.026Z,-2.13
2023-03-29T01:57:47.212Z,-2.17
2023-03-29T01:58:54.418Z,-2.13
2023-03-29T01:59:59.320Z,-2.13
2023-03-29T02:01:10.187Z,-2.15
2023-03-29T02:02:16.260Z,-2.03
2023-03-29T02:03:22.094Z,-2.08
2023-03-29T02:04:31.713Z,-2.12
2023-03-29T02:05:36.180Z,-1.96
2023-03-29T02:06:41.159Z,-2.11
2023-03-29T02:07:46.734Z,-2.06
2023-03-29T02:08:53.376Z,-2.15
2023-03-29T02:09:58.511Z,-2.15
2023-03-29T02:11:02.003Z,-2.07
2023-03-29T02:12:07.561Z,-2.13
2023-03-29T02:13:10.741Z,-2.24
2023-03-29T02:14:14.232Z,-2.12
2023-03-29T02:15:20.036Z,-2.11
2023-03-29T02:16:23.398Z,-2.08
2023-03-29T02:17:28.231Z,-2.07
2023-03-29T02:18:31.617Z,-2.07
2023-03-29T02:19:34.674Z,-2.11
2023-03-29T02:20:40.815Z,-2.15
2023-03-29T02:21:48.602Z,-2.12
2023-03-29T02:23:14.681Z,-2.18
2023-03-29T02:24:19.579Z,-2.21
2023-03-29T02:25:22.832Z,-2.34
2023-03-29T02:26:26.589Z,-2.32
2023-03-29T02:27:30.251Z,-2.23
2023-03-29T02:28:33.684Z,-2.25
2023-03-29T02:29:36.886Z,-2.30
2023-03-29T02:30:51.089Z,-2.40
2023-03-29T02:31:55.914Z,-2.23
2023-03-29T02:33:10.992Z,-2.38
2023-03-29T02:34:20.875Z,-2.42
2023-03-29T02:35:38.824Z,-2.39
2023-03-29T02:37:08.648Z,-2.44
2023-03-29T02:38:11.945Z,-2.42
2023-03-29T02:39:18.082Z,-2.56
2023-03-29T02:40:24.191Z,-2.60
2023-03-29T02:41:27.906Z,-2.35
2023-03-29T02:42:31.753Z,-2.36
2023-03-29T02:43:36.329Z,-2.46
2023-03-29T02:44:42.184Z,-2.42
2023-03-29T02:45:46.303Z,-2.49
2023-03-29T02:46:53.527Z,-2.28
2023-03-29T02:48:01.124Z,-2.29
2023-03-29T02:49:05.518Z,-2.48
2023-03-29T02:50:09.208Z,-2.55
2023-03-29T02:51:21.552Z,-2.48
2023-03-29T02:52:29.771Z,-2.36
2023-03-29T02:53:41.611Z,-2.36
2023-03-29T02:54:48.818Z,-2.38
2023-03-29T02:55:53.062Z,-2.53
2023-03-29T02:57:01.983Z,-2.53
2023-03-29T02:58:08.661Z,-2.38
2023-03-29T02:59:12.697Z,-2.38
2023-03-29T03:00:19.937Z,-2.53
2023-03-29T03:01:23.286Z,-2.52
2023-03-29T03:02:28.044Z,-2.50
2023-03-29T03:03:32.137Z,-2.44
2023-03-29T03:04:35.854Z,-2.33
2023-03-29T03:05:39.478Z,-2.30
2023-03-29T03:06:42.822Z,-2.37
2023-03-29T03:07:46.389Z,-2.42
2023-03-29T03:08:49.359Z,-2.47
2023-03-29T03:09:52.956Z,-2.44
2023-03-29T03:10:56.016Z,-2.40
2023-03-29T03:11:58.975Z,-2.52
2023-03-29T03:13:02.360Z,-2.52
2023-03-29T03:14:06.480Z,-2.56
2023-03-29T03:15:09.869Z,-2.56
2023-03-29T03:16:12.905Z,-2.62
2023-03-29T03:17:16.013Z,-2.47
2023-03-29T03:18:19.143Z,-2.52
2023-03-29T03:19:22.022Z,-2.50
2023-03-29T03:20:25.224Z,-2.50
2023-03-29T03:21:28.478Z,-2.47
2023-03-29T03:22:32.586Z,-2.50
2023-03-29T03:23:35.648Z,-2.53
2023-03-29T03:24:38.500Z,-2.47
2023-03-29T03:25:41.536Z,-2.50
2023-03-29T03:26:46.851Z,-2.46
2023-03-29T03:27:50.838Z,-2.48
2023-03-29T03:28:53.784Z,-2.47
2023-03-29T03:29:56.742Z,-2.50
2023-03-29T03:30:59.791Z,-2.47
2023-03-29T03:32:04.524Z,-2.54
2023-03-29T03:33:08.082Z,-2.58
2023-03-29T03:34:11.485Z,-2.49
2023-03-29T03:35:14.469Z,-2.43
2023-03-29T03:36:17.296Z,-2.42
2023-03-29T03:37:20.387Z,-2.54
2023-03-29T03:38:24.113Z,-2.52
2023-03-29T03:39:27.521Z,-2.47
2023-03-29T03:40:30.683Z,-2.58
2023-03-29T03:41:34.820Z,-2.60
2023-03-29T03:42:41.935Z,-2.53
2023-03-29T03:43:49.276Z,-2.55
2023-03-29T03:44:52.250Z,-2.44
2023-03-29T03:45:56.691Z,-2.50
2023-03-29T03:46:59.632Z,-2.57
2023-03-29T03:48:02.550Z,-2.54
2023-03-29T03:49:09.449Z,-2.37
2023-03-29T03:50:12.319Z,-2.31
2023-03-29T03:51:15.536Z,-2.47
2023-03-29T03:52:19.516Z,-2.52
2023-03-29T03:53:23.882Z,-2.54
2023-03-29T03:54:27.386Z,-2.50
2023-03-29T03:55:30.377Z,-2.46
2023-03-29T03:56:34.472Z,-2.49
2023-03-29T03:57:38.270Z,-2.50
2023-03-29T03:58:41.440Z,-2.56
2023-03-29T03:59:45.036Z,-2.46
2023-03-29T04:00:50.323Z,-2.43
2023-03-29T04:01:53.903Z,-2.28
2023-03-29T04:02:56.868Z,-2.43
2023-03-29T04:03:59.965Z,-2.38
2023-03-29T04:05:03.627Z,-2.34
2023-03-29T04:06:06.884Z,-2.33
2023-03-29T04:07:11.824Z,-2.33
2023-03-29T04:08:15.336Z,-2.20
2023-03-29T04:09:18.853Z,-2.30
2023-03-29T04:10:21.866Z,-2.36
2023-03-29T04:11:24.818Z,-2.27
2023-03-29T04:12:27.776Z,-2.26
2023-03-29T04:13:31.058Z,-2.33
2023-03-29T04:14:34.095Z,-2.30
2023-03-29T04:15:39.890Z,-2.36
2023-03-29T04:16:42.836Z,-2.34
2023-03-29T04:17:45.957Z,-2.30
2023-03-29T04:18:49.176Z,-2.26
2023-03-29T04:19:52.110Z,-2.35
2023-03-29T04:20:55.136Z,-2.43
2023-03-29T04:21:58.129Z,-2.30
2023-03-29T04:23:01.325Z,-2.29
2023-03-29T04:24:04.259Z,-2.35
2023-03-29T04:25:08.573Z,-2.35
2023-03-29T04:26:12.395Z,-2.28
2023-03-29T04:27:15.546Z,-2.17
2023-03-29T04:28:18.608Z,-2.52
2023-03-29T04:29:22.168Z,-2.44
2023-03-29T04:30:25.575Z,-2.36
2023-03-29T04:31:28.516Z,-2.42
2023-03-29T04:32:31.580Z,-2.22
2023-03-29T04:33:34.377Z,-2.12
2023-03-29T04:34:37.323Z,-2.12
2023-03-29T04:35:40.349Z,-2.38
2023-03-29T04:36:43.851Z,-2.34
2023-03-29T04:37:46.714Z,-2.29
2023-03-29T04:38:52.528Z,-2.47
2023-03-29T04:39:55.867Z,-2.43
2023-03-29T04:41:01.547Z,-2.33
2023-03-29T04:42:05.558Z,-2.39
2023-03-29T04:43:08.354Z,-2.54
2023-03-29T04:44:11.168Z,-2.48
2023-03-29T04:45:20.056Z,-2.47
2023-03-29T04:46:26.916Z,-2.33
2023-03-29T04:47:30.150Z,-2.09
2023-03-29T04:48:33.757Z,-2.00
2023-03-29T04:49:36.577Z,-2.04
2023-03-29T04:50:39.401Z,-2.04
2023-03-29T04:51:42.581Z,-2.06
2023-03-29T04:52:46.056Z,-1.96
2023-03-29T04:53:50.526Z,-1.76
2023-03-29T04:54:53.403Z,-1.75
2023-03-29T04:55:58.164Z,-1.71
2023-03-29T04:57:01.256Z,-1.73
2023-03-29T04:58:05.088Z,-1.57
2023-03-29T04:59:08.104Z,-1.59
2023-03-29T05:00:15.675Z,-2.12
2023-03-29T05:01:18.906Z,-2.03
2023-03-29T05:02:22.248Z,-1.93
2023-03-29T05:03:25.803Z,-1.86
2023-03-29T05:04:29.167Z,-1.88
2023-03-29T05:05:32.080Z,-1.86
2023-03-29T05:06:34.964Z,-1.83
2023-03-29T05:07:38.225Z,-1.67
2023-03-29T05:08:41.258Z,-1.66
2023-03-29T05:09:44.601Z,-1.69
2023-03-29T05:10:47.839Z,-1.78
2023-03-29T05:11:51.019Z,-1.70
2023-03-29T05:12:54.451Z,-1.64
2023-03-29T05:14:02.516Z,-1.58
2023-03-29T05:15:06.285Z,-1.56
2023-03-29T05:16:11.516Z,-1.37
2023-03-29T05:17:14.662Z,-1.46
2023-03-29T05:18:17.800Z,-1.55
2023-03-29T05:19:23.939Z,-1.45
2023-03-29T05:20:27.311Z,-1.37
2023-03-29T05:21:30.379Z,-1.31
2023-03-29T05:22:33.264Z,-1.33
2023-03-29T05:23:36.441Z,-1.29
2023-03-29T05:24:39.482Z,-1.25
2023-03-29T05:25:44.209Z,-1.19
2023-03-29T05:26:52.167Z,-1.35
2023-03-29T05:27:55.039Z,-1.33
2023-03-29T05:28:57.940Z,-1.16
2023-03-29T05:30:02.245Z,-1.14
2023-03-29T05:31:06.565Z,-1.23
2023-03-29T05:32:10.160Z,-1.23
2023-03-29T05:33:13.220Z,-1.19
2023-03-29T05:34:16.272Z,-0.95
2023-03-29T05:35:19.304Z,-0.87
2023-03-29T05:36:22.260Z,-0.91
2023-03-29T05:37:26.830Z,-0.94
2023-03-29T05:38:30.459Z,-0.83
2023-03-29T05:39:35.749Z,-0.67
2023-03-29T05:40:41.971Z,-0.65
2023-03-29T05:41:45.644Z,-0.64
2023-03-29T05:42:48.434Z,-0.66
2023-03-29T05:43:51.530Z,-0.64
2023-03-29T05:44:54.978Z,-0.70
2023-03-29T05:45:57.995Z,-0.65
2023-03-29T05:47:00.800Z,-0.60
2023-03-29T05:48:07.116Z,-0.47
2023-03-29T05:49:10.151Z,-0.45
2023-03-29T05:50:13.243Z,-0.30
2023-03-29T05:51:16.233Z,-0.39
2023-03-29T05:52:19.923Z,-0.49
2023-03-29T05:53:25.655Z,-0.47
2023-03-29T05:54:28.552Z,-0.44
2023-03-29T05:55:31.484Z,-0.35
2023-03-29T05:56:34.648Z,-0.39
2023-03-29T05:57:40.794Z,-0.43
2023-03-29T05:58:43.848Z,-0.58
2023-03-29T05:59:47.188Z,-0.59
2023-03-29T06:00:51.511Z,-0.41
2023-03-29T06:01:54.574Z,-0.36
2023-03-29T06:03:03.695Z,-0.28
2023-03-29T06:04:14.519Z,-0.28
2023-03-29T06:05:17.434Z,-0.17
2023-03-29T06:06:21.524Z,-0.26
2023-03-29T06:07:24.750Z,-0.20
2023-03-29T06:08:28.813Z,-0.18
2023-03-29T06:09:32.381Z,-0.35
2023-03-29T06:10:37.739Z,-0.34
2023-03-29T06:11:40.988Z,-0.34
2023-03-29T06:12:45.286Z,-0.12
2023-03-29T06:13:52.091Z,-0.03
2023-03-29T06:14:58.421Z,0.09
2023-03-29T06:16:01.902Z,0.25
2023-03-29T06:17:05.451Z,0.27
2023-03-29T06:18:08.579Z,0.14
2023-03-29T06:19:11.536Z,0.10
2023-03-29T06:20:15.176Z,0.19
2023-03-29T06:21:18.313Z,0.28
2023-03-29T06:22:21.568Z,0.43
2023-03-29T06:23:25.126Z,0.34
2023-03-29T06:24:28.312Z,0.34
2023-03-29T06:25:32.081Z,0.30
2023-03-29T06:26:35.462Z,0.28
2023-03-29T06:27:38.692Z,0.47
2023-03-29T06:28:42.299Z,0.60
2023-03-29T06:29:45.937Z,0.47
2023-03-29T06:30:49.582Z,0.63
2023-03-29T06:31:54.450Z,0.83
2023-03-29T06:32:59.571Z,0.94
2023-03-29T06:34:04.952Z,1.06
2023-03-29T06:35:08.278Z,1.07
2023-03-29T06:36:12.189Z,1.19
2023-03-29T06:37:15.155Z,1.17
2023-03-29T06:38:18.405Z,1.05
2023-03-29T06:39:21.621Z,1.31
2023-03-29T06:40:25.203Z,1.47
2023-03-29T06:41:28.287Z,1.40
2023-03-29T06:42:31.258Z,1.13
2023-03-29T06:43:35.097Z,1.05
2023-03-29T06:44:38.425Z,1.20
2023-03-29T06:45:41.301Z,1.04
2023-03-29T06:46:44.569Z,1.06
2023-03-29T06:47:47.699Z,1.42
2023-03-29T06:48:50.565Z,1.70
2023-03-29T06:49:53.394Z,1.87
2023-03-29T06:50:56.629Z,2.03
2023-03-29T06:52:00.316Z,2.12
2023-03-29T06:53:04.573Z,1.87
2023-03-29T06:54:07.724Z,2.08
2023-03-29T06:55:12.208Z,1.72
2023-03-29T06:56:15.148Z,1.62
2023-03-29T06:57:19.006Z,1.91
2023-03-29T06:58:22.264Z,2.13
2023-03-29T06:59:26.036Z,2.01
2023-03-29T07:00:28.957Z,2.21
2023-03-29T07:01:33.315Z,2.24
2023-03-29T07:02:36.199Z,2.21
2023-03-29T07:03:39.648Z,1.93
2023-03-29T07:04:43.316Z,2.08
2023-03-29T07:05:52.349Z,1.91
2023-03-29T07:07:04.442Z,1.81
2023-03-29T07:08:08.273Z,2.00
2023-03-29T07:09:13.493Z,2.25
2023-03-29T07:10:16.954Z,2.37
2023-03-29T07:11:20.670Z,2.31
2023-03-29T07:12:24.157Z,2.13
2023-03-29T07:13:27.908Z,2.39
2023-03-29T07:14:31.094Z,2.19
2023-03-29T07:15:34.147Z,2.09
2023-03-29T07:16:37.965Z,2.11
2023-03-29T07:17:41.332Z,2.33
2023-03-29T07:18:45.198Z,2.19
2023-03-29T07:19:49.276Z,2.30
2023-03-29T07:20:52.674Z,2.41
2023-03-29T07:21:56.763Z,2.40
2023-03-29T07:22:59.875Z,2.56
2023-03-29T07:24:04.881Z,2.60
2023-03-29T07:25:09.715Z,2.71
2023-03-29T07:26:13.158Z,2.73
2023-03-29T07:27:16.496Z,2.92
2023-03-29T07:28:20.293Z,3.03
2023-03-29T07:29:23.762Z,3.04
2023-03-29T07:30:31.628Z,3.15
2023-03-29T07:31:41.115Z,3.05
2023-03-29T07:32:46.812Z,2.90
2023-03-29T07:33:53.004Z,3.06
2023-03-29T07:34:56.102Z,2.74
2023-03-29T07:36:02.452Z,2.74
2023-03-29T07:37:06.720Z,2.55
2023-03-29T07:38:10.248Z,2.61
2023-03-29T07:39:13.910Z,2.67
2023-03-29T07:40:20.013Z,2.64
2023-03-29T07:41:23.174Z,2.73
2023-03-29T07:42:26.840Z,2.76
2023-03-29T07:43:29.769Z,2.98
2023-03-29T07:44:33.830Z,2.78
2023-03-29T07:45:37.291Z,2.97
2023-03-29T07:46:40.334Z,3.36
2023-03-29T07:47:46.491Z,3.39
2023-03-29T07:48:49.359Z,2.96
2023-03-29T07:49:52.139Z,3.31
2023-03-29T07:50:55.189Z,3.40
2023-03-29T07:51:58.678Z,3.02
2023-03-29T07:53:03.206Z,3.21
2023-03-29T07:54:06.771Z,3.05
2023-03-29T07:55:12.108Z,2.91
2023-03-29T07:56:15.049Z,3.11
2023-03-29T07:57:18.105Z,3.12
2023-03-29T07:58:22.069Z,3.15
2023-03-29T07:59:25.066Z,3.21
2023-03-29T08:00:28.564Z,3.32
2023-03-29T08:01:34.399Z,3.84
2023-03-29T08:02:38.236Z,3.92
2023-03-29T08:03:42.618Z,3.89
2023-03-29T08:04:46.237Z,3.90
2023-03-29T08:05:49.216Z,3.87
2023-03-29T08:06:52.591Z,3.81
2023-03-29T08:07:55.469Z,3.99
2023-03-29T08:08:58.643Z,3.99
2023-03-29T08:10:01.572Z,4.07
2023-03-29T08:11:04.959Z,4.09
2023-03-29T08:12:08.038Z,4.26
2023-03-29T08:13:11.306Z,4.48
2023-03-29T08:14:14.263Z,4.57
2023-03-29T08:15:17.268Z,4.62
2023-03-29T08:16:20.170Z,4.54
2023-03-29T08:17:22.987Z,4.65
2023-03-29T08:18:26.433Z,4.50
2023-03-29T08:19:29.308Z,4.61
2023-03-29T08:20:32.856Z,4.67
2023-03-29T08:21:35.864Z,4.43
2023-03-29T08:22:39.519Z,4.40
2023-03-29T08:23:42.361Z,4.45
2023-03-29T08:24:45.153Z,4.76
2023-03-29T08:25:48.108Z,4.71
2023-03-29T08:26:51.081Z,4.94
2023-03-29T08:27:54.618Z,4.83
2023-03-29T08:28:57.853Z,4.89
2023-03-29T08:30:00.935Z,4.86
2023-03-29T08:31:04.313Z,4.96
2023-03-29T08:32:07.604Z,5.21
2023-03-29T08:33:10.653Z,5.24
2023-03-29T08:34:14.469Z,5.45
2023-03-29T08:35:17.519Z,5.53
2023-03-29T08:36:20.569Z,5.60
2023-03-29T08:37:25.966Z,5.70
2023-03-29T08:38:29.293Z,5.98
2023-03-29T08:39:33.385Z,5.84
2023-03-29T08:40:36.985Z,6.06
2023-03-29T08:42:04.900Z,6.24
2023-03-29T08:43:35.038Z,6.50
2023-03-29T08:44:51.286Z,6.77
2023-03-29T08:45:53.994Z,6.63
2023-03-29T08:47:19.521Z,6.60
2023-03-29T08:48:28.886Z,6.70
2023-03-29T08:49:32.370Z,6.81
2023-03-29T08:50:50.630Z,6.94
2023-03-29T08:51:59.312Z,7.01
2023-03-29T08:53:15.781Z,7.05
2023-03-29T08:54:27.383Z,6.70
2023-03-29T08:55:43.115Z,6.61
2023-03-29T08:56:47.985Z,6.83
2023-03-29T08:57:52.117Z,7.06
2023-03-29T08:58:58.026Z,7.59
2023-03-29T09:00:05.716Z,7.55
2023-03-29T09:01:11.773Z,7.80
2023-03-29T09:02:25.232Z,8.15
2023-03-29T09:03:35.858Z,8.43
2023-03-29T09:04:40.650Z,8.01
2023-03-29T09:05:49.320Z,7.87
2023-03-29T09:06:53.066Z,8.16
2023-03-29T09:07:56.357Z,8.54
2023-03-29T09:08:59.443Z,8.88
2023-03-29T09:10:03.773Z,8.87
2023-03-29T09:11:24.986Z,9.10
2023-03-29T09:12:37.857Z,8.98
2023-03-29T09:14:08.889Z,9.12
2023-03-29T09:15:44.828Z,9.13
2023-03-29T09:17:03.081Z,8.24
2023-03-29T09:18:26.195Z,8.70
2023-03-29T09:20:02.220Z,9.15
2023-03-29T09:21:29.553Z,9.71
2023-03-29T09:22:54.341Z,9.83
2023-03-29T09:24:10.821Z,9.28
2023-03-29T09:25:52.626Z,9.44
2023-03-29T09:27:10.747Z,10.07
2023-03-29T09:28:26.208Z,9.79
2023-03-29T09:29:50.498Z,9.55
2023-03-29T09:31:06.519Z,9.93
2023-03-29T09:32:57.665Z,9.97
2023-03-29T09:34:15.948Z,9.41
2023-03-29T09:35:31.258Z,9.48
2023-03-29T09:36:52.839Z,9.60
2023-03-29T09:37:56.993Z,9.73
2023-03-29T09:39:00.850Z,9.92
2023-03-29T09:40:11.610Z,9.86
2023-03-29T09:41:23.841Z,10.16
2023-03-29T09:42:31.302Z,10.14
2023-03-29T09:43:38.126Z,10.21
2023-03-29T09:44:47.697Z,10.17
2023-03-29T09:45:58.588Z,9.93
2023-03-29T09:47:09.562Z,9.93
2023-03-29T09:48:15.350Z,10.43
2023-03-29T09:49:25.006Z,10.35
2023-03-29T09:50:38.822Z,9.95
2023-03-29T09:51:43.320Z,10.02
2023-03-29T09:52:46.691Z,10.34
2023-03-29T09:53:50.165Z,10.66
2023-03-29T09:54:53.564Z,11.27
2023-03-29T09:55:56.865Z,11.21
2023-03-29T09:57:00.540Z,11.46
2023-03-29T09:58:15.545Z,11.06
2023-03-29T09:59:18.618Z,10.89
2023-03-29T10:00:22.614Z,11.19
2023-03-29T10:01:39.004Z,10.77
2023-03-29T10:02:42.240Z,10.30
2023-03-29T10:03:50.510Z,10.03
2023-03-29T10:05:03.834Z,10.64
2023-03-29T10:06:11.142Z,10.58
2023-03-29T10:07:20.843Z,10.49
2023-03-29T10:08:28.126Z,10.53
2023-03-29T10:09:32.757Z,10.55
2023-03-29T10:10:37.077Z,10.43
2023-03-29T10:11:39.998Z,10.15
2023-03-29T10:12:51.240Z,10.23
2023-03-29T10:13:57.016Z,10.23
2023-03-29T10:15:01.242Z,10.47
2023-03-29T10:16:09.470Z,10.60
2023-03-29T10:17:24.872Z,10.47
2023-03-29T10:18:30.185Z,10.17
2023-03-29T10:19:35.844Z,10.37
2023-03-29T10:20:40.900Z,10.42
2023-03-29T10:21:43.792Z,10.53
2023-03-29T10:22:50.352Z,10.46
2023-03-29T10:24:02.199Z,10.35
2023-03-29T10:25:12.925Z,10.16
2023-03-29T10:26:29.845Z,10.63
2023-03-29T10:27:36.053Z,10.95
2023-03-29T10:28:39.215Z,11.21
2023-03-29T10:29:43.470Z,11.53
2023-03-29T10:30:55.136Z,11.77
2023-03-29T10:31:58.332Z,11.84
2023-03-29T10:33:02.093Z,12.15
2023-03-29T10:34:07.142Z,12.60
2023-03-29T10:35:15.972Z,12.55
2023-03-29T10:36:19.738Z,12.62
2023-03-29T10:37:24.097Z,12.62
2023-03-29T10:38:29.857Z,12.22
2023-03-29T10:39:36.048Z,13.22
2023-03-29T10:40:45.884Z,13.17
2023-03-29T10:41:52.787Z,12.72
2023-03-29T10:43:00.436Z,12.84
2023-03-29T10:44:05.238Z,12.22
2023-03-29T10:45:28.449Z,12.74
2023-03-29T10:46:42.932Z,12.80
2023-03-29T10:47:46.288Z,12.82
2023-03-29T10:48:52.246Z,12.81
2023-03-29T10:49:59.221Z,12.46
2023-03-29T10:51:04.588Z,12.24
2023-03-29T10:52:09.612Z,12.45
2023-03-29T10:53:27.210Z,12.61
2023-03-29T10:54:31.394Z,12.65
2023-03-29T10:55:53.437Z,12.69
2023-03-29T10:57:00.654Z,12.42
2023-03-29T10:58:15.758Z,12.53
2023-03-29T10:59:53.752Z,12.38
2023-03-29T11:00:57.953Z,11.67
2023-03-29T11:02:14.629Z,11.59
2023-03-29T11:03:40.679Z,11.79
2023-03-29T11:05:00.370Z,11.84
2023-03-29T11:06:14.611Z,11.59
2023-03-29T11:07:32.783Z,12.07
2023-03-29T11:08:42.488Z,12.32
2023-03-29T11:10:13.317Z,12.05
2023-03-29T11:11:36.409Z,12.10
2023-03-29T11:12:45.540Z,11.94
2023-03-29T11:14:30.194Z,12.44
2023-03-29T11:16:06.028Z,12.34
2023-03-29T11:17:24.266Z,12.45
2023-03-29T11:19:04.031Z,12.82
2023-03-29T11:20:21.902Z,13.54
2023-03-29T11:21:37.490Z,13.42
2023-03-29T11:23:05.180Z,13.64
2023-03-29T11:24:28.128Z,13.00
2023-03-29T11:25:46.217Z,12.58
2023-03-29T11:26:52.188Z,12.27
2023-03-29T11:28:00.344Z,12.47
2023-03-29T11:29:14.118Z,12.43
2023-03-29T11:30:48.539Z,12.19
2023-03-29T11:32:08.232Z,11.95
2023-03-29T11:33:29.464Z,11.95
2023-03-29T11:34:41.420Z,11.90
2023-03-29T11:35:49.972Z,12.22
2023-03-29T11:37:04.157Z,11.93
2023-03-29T11:38:29.920Z,11.46
2023-03-29T11:39:39.099Z,10.93
2023-03-29T11:41:09.626Z,11.31
2023-03-29T11:42:20.583Z,11.33
2023-03-29T11:43:28.439Z,11.33
2023-03-29T11:44:31.905Z,11.47
2023-03-29T11:45:50.835Z,11.83
2023-03-29T11:47:00.192Z,11.75
2023-03-29T11:48:07.855Z,11.76
2023-03-29T11:49:11.473Z,11.86
2023-03-29T11:50:27.853Z,11.91
2023-03-29T11:51:40.392Z,11.76
2023-03-29T11:52:54.787Z,12.14
2023-03-29T11:54:12.757Z,12.19
2023-03-29T11:55:32.186Z,12.02
2023-03-29T11:56:39.281Z,12.29
2023-03-29T11:58:12.258Z,12.36
2023-03-29T11:59:28.867Z,12.05
2023-03-29T12:00:38.872Z,11.41
2023-03-29T12:02:11.112Z,11.82
2023-03-29T12:03:46.379Z,12.77
2023-03-29T12:04:55.173Z,12.52
2023-03-29T12:06:14.576Z,12.56
2023-03-29T12:07:32.446Z,12.62
2023-03-29T12:08:42.754Z,12.28
2023-03-29T12:09:53.377Z,12.51
2023-03-29T12:11:20.759Z,12.49
2023-03-29T12:12:48.269Z,12.59
2023-03-29T12:13:56.888Z,12.08
2023-03-29T12:15:13.949Z,12.00
2023-03-29T12:16:23.331Z,11.89
2023-03-29T12:17:37.298Z,12.33
2023-03-29T12:18:45.708Z,12.22
2023-03-29T12:20:15.627Z,12.41
2023-03-29T12:21:21.963Z,11.96
2023-03-29T12:22:25.056Z,11.97
2023-03-29T12:23:32.299Z,11.91
2023-03-29T12:24:39.183Z,12.29
2023-03-29T12:26:17.397Z,12.32
2023-03-29T12:27:22.767Z,12.17
2023-03-29T12:28:50.552Z,11.92
2023-03-29T12:30:23.840Z,11.82
2023-03-29T12:31:51.295Z,11.91
2023-03-29T12:33:09.257Z,11.53
2023-03-29T12:34:18.649Z,11.26
2023-03-29T12:35:34.486Z,11.56
2023-03-29T12:36:50.760Z,11.94
2023-03-29T12:38:18.298Z,12.46
2023-03-29T12:39:23.279Z,12.11
2023-03-29T12:40:28.561Z,11.94
2023-03-29T12:41:41.066Z,12.00
2023-03-29T12:42:52.136Z,12.15
2023-03-29T12:44:01.330Z,12.08
2023-03-29T12:45:04.930Z,12.23
2023-03-29T12:46:25.985Z,11.65
2023-03-29T12:47:37.681Z,11.27
2023-03-29T12:48:42.809Z,11.44
2023-03-29T12:49:47.209Z,11.02
2023-03-29T12:51:01.275Z,10.54
2023-03-29T12:52:23.239Z,10.54
2023-03-29T12:53:38.213Z,10.95
2023-03-29T12:54:41.379Z,11.09
2023-03-29T12:55:44.301Z,11.18
2023-03-29T12:56:53.946Z,10.65
2023-03-29T12:58:11.064Z,10.87
2023-03-29T12:59:40.336Z,10.97
2023-03-29T13:00:45.585Z,11.22
2023-03-29T13:02:10.051Z,10.81
2023-03-29T13:03:29.867Z,11.12
2023-03-29T13:04:44.537Z,11.41
2023-03-29T13:05:48.433Z,11.66
2023-03-29T13:07:03.718Z,11.90
2023-03-29T13:08:27.116Z,11.59
2023-03-29T13:09:36.926Z,11.80
2023-03-29T13:10:42.403Z,11.87
2023-03-29T13:11:52.934Z,12.27
2023-03-29T13:12:56.457Z,11.72
2023-03-29T13:14:12.845Z,11.54
2023-03-29T13:15:16.968Z,12.10
2023-03-29T13:16:28.639Z,12.65
2023-03-29T13:17:38.096Z,12.70
2023-03-29T13:18:58.231Z,12.33
2023-03-29T13:20:35.021Z,12.06
2023-03-29T13:22:17.956Z,11.23
2023-03-29T13:23:27.806Z,10.79
2023-03-29T13:25:02.051Z,11.02
2023-03-29T13:26:27.339Z,11.03
2023-03-29T13:27:49.680Z,10.59
2023-03-29T13:29:05.041Z,10.33
2023-03-29T13:30:24.042Z,9.86
2023-03-29T13:31:44.444Z,9.78
2023-03-29T13:33:14.574Z,9.78
2023-03-29T13:34:54.378Z,9.90
2023-03-29T13:36:15.990Z,9.85
2023-03-29T13:37:41.457Z,9.86
2023-03-29T13:38:50.270Z,9.91
2023-03-29T13:39:55.573Z,9.67
2023-03-29T13:41:17.140Z,9.66
2023-03-29T13:42:36.717Z,9.82
2023-03-29T13:43:51.957Z,9.76
2023-03-29T13:45:25.663Z,9.69
2023-03-29T13:46:42.683Z,9.73
2023-03-29T13:47:58.827Z,9.34
2023-03-29T13:49:21.878Z,9.56
2023-03-29T13:50:40.608Z,9.39
2023-03-29T13:52:03.118Z,9.58
2023-03-29T13:53:23.263Z,9.44
2023-03-29T13:54:37.811Z,9.45
2023-03-29T13:55:49.003Z,9.36
2023-03-29T13:57:09.553Z,9.11
2023-03-29T13:58:25.122Z,9.22
2023-03-29T13:59:57.954Z,9.18
2023-03-29T14:01:07.697Z,9.19
2023-03-29T14:02:35.880Z,9.47
2023-03-29T14:03:45.249Z,9.79
2023-03-29T14:04:51.626Z,9.79
2023-03-29T14:06:02.053Z,9.72
2023-03-29T14:07:08.539Z,9.40
2023-03-29T14:08:29.487Z,9.63
2023-03-29T14:09:36.370Z,9.76
2023-03-29T14:10:46.934Z,9.88
2023-03-29T14:11:52.048Z,9.93
2023-03-29T14:12:57.120Z,9.74
2023-03-29T14:14:05.816Z,9.51
2023-03-29T14:15:19.607Z,9.33
2023-03-29T14:16:27.301Z,9.31
2023-03-29T14:17:31.753Z,9.29
2023-03-29T14:18:39.797Z,9.65
2023-03-29T14:19:42.871Z,9.84
2023-03-29T14:20:55.116Z,9.61
2023-03-29T14:22:01.946Z,9.32
2023-03-29T14:23:14.948Z,9.48
2023-03-29T14:24:27.293Z,9.57
2023-03-29T14:25:33.908Z,9.40
2023-03-29T14:26:36.789Z,9.29
2023-03-29T14:27:41.525Z,9.22
2023-03-29T14:28:51.906Z,9.30
2023-03-29T14:29:55.046Z,9.52
2023-03-29T14:30:57.886Z,9.62
2023-03-29T14:32:12.953Z,9.85
2023-03-29T14:33:27.556Z,9.49
2023-03-29T14:34:31.146Z,9.43
2023-03-29T14:35:34.178Z,9.47
2023-03-29T14:36:38.623Z,9.63
2023-03-29T14:37:42.776Z,9.57
2023-03-29T14:38:54.441Z,9.81
2023-03-29T14:39:59.497Z,9.93
2023-03-29T14:41:03.700Z,9.78
2023-03-29T14:42:16.581Z,9.92
2023-03-29T14:43:24.320Z,9.93
2023-03-29T14:44:33.379Z,9.78
2023-03-29T14:45:37.620Z,9.49
2023-03-29T14:46:42.202Z,9.42
2023-03-29T14:47:52.045Z,9.11
2023-03-29T14:48:57.720Z,9.16
2023-03-29T14:50:01.997Z,9.25
2023-03-29T14:51:06.835Z,9.38
2023-03-29T14:52:12.814Z,9.19